sensor_id;sensor_type;location;lat;lon;timestamp;temperature;humidity
1766;DHT22;880;52.452;8.656;2023-04-09T00:02:13;10.00;99.90
1766;DHT22;880;52.452;8.656;2023-04-09T00:04:41;10.00;99.90
1766;DHT22;880;52.452;8.656;2023-04-09T00:07:08;10.00;99.90
1766;DHT22;880;52.452;8.656;2023-04-09T00:09:35;10.00;99.90
1766;DHT22;880;52.452;8.656;2023-04-09T00:12:02;10.10;99.90
1766;DHT22;880;52.452;8.656;2023-04-09T00:14:29;10.10;99.90
1766;DHT22;880;52.452;8.656;2023-04-09T00:17:02;10.20;99.90
1766;DHT22;880;52.452;8.656;2023-04-09T00:19:29;10.20;99.90
1766;DHT22;880;52.452;8.656;2023-04-09T00:21:57;10.30;99.90
1766;DHT22;880;52.452;8.656;2023-04-09T00:24:24;10.40;99.90
1766;DHT22;880;52.452;8.656;2023-04-09T00:26:51;10.40;99.90
1766;DHT22;880;52.452;8.656;2023-04-09T00:29:19;10.50;99.90
1766;DHT22;880;52.452;8.656;2023-04-09T00:31:46;10.40;99.90
1766;DHT22;880;52.452;8.656;2023-04-09T00:34:13;10.40;99.90
1766;DHT22;880;52.452;8.656;2023-04-09T00:36:40;10.30;99.90
1766;DHT22;880;52.452;8.656;2023-04-09T00:39:07;10.10;99.90
1766;DHT22;880;52.452;8.656;2023-04-09T00:41:34;10.00;99.90
1766;DHT22;880;52.452;8.656;2023-04-09T00:44:01;9.90;99.90
1766;DHT22;880;52.452;8.656;2023-04-09T00:46:30;9.80;99.90
1766;DHT22;880;52.452;8.656;2023-04-09T00:48:57;9.80;99.90
1766;DHT22;880;52.452;8.656;2023-04-09T00:51:25;9.70;99.90
1766;DHT22;880;52.452;8.656;2023-04-09T00:53:52;9.50;99.90
1766;DHT22;880;52.452;8.656;2023-04-09T00:56:26;9.40;99.90
1766;DHT22;880;52.452;8.656;2023-04-09T00:58:54;9.30;99.90
1766;DHT22;880;52.452;8.656;2023-04-09T01:01:21;9.20;99.90
1766;DHT22;880;52.452;8.656;2023-04-09T01:03:48;9.20;99.90
1766;DHT22;880;52.452;8.656;2023-04-09T01:12:08;9.10;99.90
1766;DHT22;880;52.452;8.656;2023-04-09T01:14:48;9.10;99.90
1766;DHT22;880;52.452;8.656;2023-04-09T01:17:32;9.10;99.90
1766;DHT22;880;52.452;8.656;2023-04-09T01:20:22;9.00;99.90
1766;DHT22;880;52.452;8.656;2023-04-09T01:23:50;8.90;99.90
1766;DHT22;880;52.452;8.656;2023-04-09T01:27:04;8.70;99.90
1766;DHT22;880;52.452;8.656;2023-04-09T01:29:50;8.60;99.90
1766;DHT22;880;52.452;8.656;2023-04-09T01:32:20;8.50;99.90
1766;DHT22;880;52.452;8.656;2023-04-09T01:34:48;8.40;99.90
1766;DHT22;880;52.452;8.656;2023-04-09T01:37:16;8.40;99.90
1766;DHT22;880;52.452;8.656;2023-04-09T01:39:44;8.40;99.90
1766;DHT22;880;52.452;8.656;2023-04-09T01:42:14;8.40;99.90
1766;DHT22;880;52.452;8.656;2023-04-09T01:44:44;8.50;99.90
1766;DHT22;880;52.452;8.656;2023-04-09T01:47:12;8.60;99.90
1766;DHT22;880;52.452;8.656;2023-04-09T01:49:40;8.40;99.90
1766;DHT22;880;52.452;8.656;2023-04-09T01:52:08;8.20;99.90
1766;DHT22;880;52.452;8.656;2023-04-09T01:54:35;8.00;99.90
1766;DHT22;880;52.452;8.656;2023-04-09T01:57:02;7.80;99.90
1766;DHT22;880;52.452;8.656;2023-04-09T01:59:29;7.60;99.90
1766;DHT22;880;52.452;8.656;2023-04-09T02:02:05;7.40;99.90
1766;DHT22;880;52.452;8.656;2023-04-09T02:04:40;7.30;99.90
1766;DHT22;880;52.452;8.656;2023-04-09T02:10:00;7.10;99.90
1766;DHT22;880;52.452;8.656;2023-04-09T02:12:29;7.00;99.90
1766;DHT22;880;52.452;8.656;2023-04-09T02:14:57;6.90;99.90
1766;DHT22;880;52.452;8.656;2023-04-09T02:17:25;6.80;99.90
1766;DHT22;880;52.452;8.656;2023-04-09T02:19:52;6.70;99.90
1766;DHT22;880;52.452;8.656;2023-04-09T02:22:19;6.60;99.90
1766;DHT22;880;52.452;8.656;2023-04-09T02:24:47;6.60;99.90
1766;DHT22;880;52.452;8.656;2023-04-09T02:27:14;6.60;99.90
1766;DHT22;880;52.452;8.656;2023-04-09T02:29:41;6.50;99.90
1766;DHT22;880;52.452;8.656;2023-04-09T02:32:08;6.50;99.90
1766;DHT22;880;52.452;8.656;2023-04-09T02:34:35;6.50;99.90
1766;DHT22;880;52.452;8.656;2023-04-09T02:37:02;6.50;99.90
1766;DHT22;880;52.452;8.656;2023-04-09T02:39:29;6.50;99.90
1766;DHT22;880;52.452;8.656;2023-04-09T02:41:56;6.50;99.90
1766;DHT22;880;52.452;8.656;2023-04-09T02:44:25;6.50;99.90
1766;DHT22;880;52.452;8.656;2023-04-09T02:46:53;6.50;99.90
1766;DHT22;880;52.452;8.656;2023-04-09T02:49:21;6.40;99.90
1766;DHT22;880;52.452;8.656;2023-04-09T02:51:48;6.40;99.90
1766;DHT22;880;52.452;8.656;2023-04-09T02:54:15;6.40;99.90
1766;DHT22;880;52.452;8.656;2023-04-09T02:56:43;6.40;99.90
1766;DHT22;880;52.452;8.656;2023-04-09T02:59:13;6.40;99.90
1766;DHT22;880;52.452;8.656;2023-04-09T03:01:40;6.30;99.90
1766;DHT22;880;52.452;8.656;2023-04-09T03:04:07;6.30;99.90
1766;DHT22;880;52.452;8.656;2023-04-09T03:06:34;6.30;99.90
1766;DHT22;880;52.452;8.656;2023-04-09T03:09:01;6.30;99.90
1766;DHT22;880;52.452;8.656;2023-04-09T03:11:28;6.30;99.90
1766;DHT22;880;52.452;8.656;2023-04-09T03:13:55;6.30;99.90
1766;DHT22;880;52.452;8.656;2023-04-09T03:16:24;6.30;99.90
1766;DHT22;880;52.452;8.656;2023-04-09T03:18:52;6.30;99.90
1766;DHT22;880;52.452;8.656;2023-04-09T03:21:22;6.30;99.90
1766;DHT22;880;52.452;8.656;2023-04-09T03:23:50;6.20;99.90
1766;DHT22;880;52.452;8.656;2023-04-09T03:26:17;6.20;99.90
1766;DHT22;880;52.452;8.656;2023-04-09T03:28:47;6.20;99.90
1766;DHT22;880;52.452;8.656;2023-04-09T03:31:15;6.10;99.90
1766;DHT22;880;52.452;8.656;2023-04-09T03:33:43;6.10;99.90
1766;DHT22;880;52.452;8.656;2023-04-09T03:36:10;6.10;99.90
1766;DHT22;880;52.452;8.656;2023-04-09T03:38:51;6.10;99.90
1766;DHT22;880;52.452;8.656;2023-04-09T03:41:27;6.00;99.90
1766;DHT22;880;52.452;8.656;2023-04-09T03:43:56;6.00;99.90
1766;DHT22;880;52.452;8.656;2023-04-09T03:46:27;6.00;99.90
1766;DHT22;880;52.452;8.656;2023-04-09T03:48:56;6.00;99.90
1766;DHT22;880;52.452;8.656;2023-04-09T03:51:32;6.10;99.90
1766;DHT22;880;52.452;8.656;2023-04-09T03:53:59;6.10;99.90
1766;DHT22;880;52.452;8.656;2023-04-09T03:56:26;6.00;99.90
1766;DHT22;880;52.452;8.656;2023-04-09T03:58:54;6.00;99.90
1766;DHT22;880;52.452;8.656;2023-04-09T04:01:26;6.00;99.90
1766;DHT22;880;52.452;8.656;2023-04-09T04:03:57;6.00;99.90
1766;DHT22;880;52.452;8.656;2023-04-09T04:06:32;5.90;99.90
1766;DHT22;880;52.452;8.656;2023-04-09T04:09:10;5.90;99.90
1766;DHT22;880;52.452;8.656;2023-04-09T04:11:54;5.90;99.90
1766;DHT22;880;52.452;8.656;2023-04-09T04:14:25;5.90;99.90
1766;DHT22;880;52.452;8.656;2023-04-09T04:16:59;6.00;99.90
1766;DHT22;880;52.452;8.656;2023-04-09T04:19:29;6.00;99.90
1766;DHT22;880;52.452;8.656;2023-04-09T04:21:57;6.00;99.90
1766;DHT22;880;52.452;8.656;2023-04-09T04:24:24;5.90;99.90
1766;DHT22;880;52.452;8.656;2023-04-09T04:26:51;5.80;99.90
1766;DHT22;880;52.452;8.656;2023-04-09T04:29:20;5.70;99.90
1766;DHT22;880;52.452;8.656;2023-04-09T04:31:58;5.70;99.90
1766;DHT22;880;52.452;8.656;2023-04-09T04:34:31;5.70;99.90
1766;DHT22;880;52.452;8.656;2023-04-09T04:37:05;5.70;99.90
1766;DHT22;880;52.452;8.656;2023-04-09T04:39:32;5.70;99.90
1766;DHT22;880;52.452;8.656;2023-04-09T04:42:30;5.60;99.90
1766;DHT22;880;52.452;8.656;2023-04-09T04:44:59;5.60;99.90
1766;DHT22;880;52.452;8.656;2023-04-09T04:47:47;5.60;99.90
1766;DHT22;880;52.452;8.656;2023-04-09T04:50:14;5.70;99.90
1766;DHT22;880;52.452;8.656;2023-04-09T04:53:01;5.60;99.90
1766;DHT22;880;52.452;8.656;2023-04-09T04:55:34;5.60;99.90
1766;DHT22;880;52.452;8.656;2023-04-09T04:58:02;5.70;99.90
1766;DHT22;880;52.452;8.656;2023-04-09T05:00:39;5.70;99.90
1766;DHT22;880;52.452;8.656;2023-04-09T05:03:06;5.70;99.90
1766;DHT22;880;52.452;8.656;2023-04-09T05:05:56;5.70;99.90
1766;DHT22;880;52.452;8.656;2023-04-09T05:08:26;5.70;99.90
1766;DHT22;880;52.452;8.656;2023-04-09T05:10:54;5.70;99.90
1766;DHT22;880;52.452;8.656;2023-04-09T05:13:31;5.80;99.90
1766;DHT22;880;52.452;8.656;2023-04-09T05:16:00;5.80;99.90
1766;DHT22;880;52.452;8.656;2023-04-09T05:18:29;5.70;99.90
1766;DHT22;880;52.452;8.656;2023-04-09T05:20:56;5.70;99.90
1766;DHT22;880;52.452;8.656;2023-04-09T05:23:26;5.80;99.90
1766;DHT22;880;52.452;8.656;2023-04-09T05:25:53;5.70;99.90
1766;DHT22;880;52.452;8.656;2023-04-09T05:28:43;5.70;99.90
1766;DHT22;880;52.452;8.656;2023-04-09T05:31:15;5.60;99.90
1766;DHT22;880;52.452;8.656;2023-04-09T05:33:50;5.60;99.90
1766;DHT22;880;52.452;8.656;2023-04-09T05:36:23;5.50;99.90
1766;DHT22;880;52.452;8.656;2023-04-09T05:38:51;5.40;99.90
1766;DHT22;880;52.452;8.656;2023-04-09T05:41:18;5.40;99.90
1766;DHT22;880;52.452;8.656;2023-04-09T05:44:18;5.40;99.90
1766;DHT22;880;52.452;8.656;2023-04-09T05:46:45;5.40;99.90
1766;DHT22;880;52.452;8.656;2023-04-09T05:49:16;5.50;99.90
1766;DHT22;880;52.452;8.656;2023-04-09T05:51:46;5.60;99.90
1766;DHT22;880;52.452;8.656;2023-04-09T05:54:21;5.60;99.90
1766;DHT22;880;52.452;8.656;2023-04-09T05:56:48;5.70;99.90
1766;DHT22;880;52.452;8.656;2023-04-09T05:59:15;5.70;99.90
1766;DHT22;880;52.452;8.656;2023-04-09T06:01:42;5.70;99.90
1766;DHT22;880;52.452;8.656;2023-04-09T06:04:09;5.70;99.90
1766;DHT22;880;52.452;8.656;2023-04-09T06:06:37;5.60;99.90
1766;DHT22;880;52.452;8.656;2023-04-09T06:09:04;5.60;99.90
1766;DHT22;880;52.452;8.656;2023-04-09T06:11:31;5.60;99.90
1766;DHT22;880;52.452;8.656;2023-04-09T06:13:59;5.60;99.90
1766;DHT22;880;52.452;8.656;2023-04-09T06:16:26;5.60;99.90
1766;DHT22;880;52.452;8.656;2023-04-09T06:18:53;5.70;99.90
1766;DHT22;880;52.452;8.656;2023-04-09T06:21:22;5.70;99.90
1766;DHT22;880;52.452;8.656;2023-04-09T06:23:49;5.70;99.90
1766;DHT22;880;52.452;8.656;2023-04-09T06:26:17;5.70;99.90
1766;DHT22;880;52.452;8.656;2023-04-09T06:28:44;5.70;99.90
1766;DHT22;880;52.452;8.656;2023-04-09T06:31:11;5.60;99.90
1766;DHT22;880;52.452;8.656;2023-04-09T06:33:38;5.60;99.90
1766;DHT22;880;52.452;8.656;2023-04-09T06:36:05;5.60;99.90
1766;DHT22;880;52.452;8.656;2023-04-09T06:38:32;5.60;99.90
1766;DHT22;880;52.452;8.656;2023-04-09T06:40:59;5.70;99.90
1766;DHT22;880;52.452;8.656;2023-04-09T06:43:26;5.70;99.90
1766;DHT22;880;52.452;8.656;2023-04-09T06:45:53;5.70;99.90
1766;DHT22;880;52.452;8.656;2023-04-09T06:48:20;5.70;99.90
1766;DHT22;880;52.452;8.656;2023-04-09T06:50:47;5.70;99.90
1766;DHT22;880;52.452;8.656;2023-04-09T06:53:14;5.70;99.90
1766;DHT22;880;52.452;8.656;2023-04-09T06:55:42;5.70;99.90
1766;DHT22;880;52.452;8.656;2023-04-09T06:58:09;5.80;99.90
1766;DHT22;880;52.452;8.656;2023-04-09T07:00:35;5.90;99.90
1766;DHT22;880;52.452;8.656;2023-04-09T07:03:03;5.80;99.90
1766;DHT22;880;52.452;8.656;2023-04-09T07:05:31;5.90;99.90
1766;DHT22;880;52.452;8.656;2023-04-09T07:07:58;5.80;99.90
1766;DHT22;880;52.452;8.656;2023-04-09T07:10:25;5.80;99.90
1766;DHT22;880;52.452;8.656;2023-04-09T07:12:52;5.90;99.90
1766;DHT22;880;52.452;8.656;2023-04-09T07:15:19;5.90;99.90
1766;DHT22;880;52.452;8.656;2023-04-09T07:17:46;5.90;99.90
1766;DHT22;880;52.452;8.656;2023-04-09T07:20:13;5.90;99.90
1766;DHT22;880;52.452;8.656;2023-04-09T07:22:41;6.00;99.90
1766;DHT22;880;52.452;8.656;2023-04-09T07:25:08;5.90;99.90
1766;DHT22;880;52.452;8.656;2023-04-09T07:27:35;5.90;99.90
1766;DHT22;880;52.452;8.656;2023-04-09T07:30:02;6.00;99.90
1766;DHT22;880;52.452;8.656;2023-04-09T07:32:29;6.00;99.90
1766;DHT22;880;52.452;8.656;2023-04-09T07:34:56;6.10;99.90
1766;DHT22;880;52.452;8.656;2023-04-09T07:37:25;6.20;99.90
1766;DHT22;880;52.452;8.656;2023-04-09T07:39:52;6.10;99.90
1766;DHT22;880;52.452;8.656;2023-04-09T07:42:19;6.10;99.90
1766;DHT22;880;52.452;8.656;2023-04-09T07:44:47;6.10;99.90
1766;DHT22;880;52.452;8.656;2023-04-09T07:47:15;6.10;99.90
1766;DHT22;880;52.452;8.656;2023-04-09T07:49:42;6.20;99.90
1766;DHT22;880;52.452;8.656;2023-04-09T07:52:09;6.20;99.90
1766;DHT22;880;52.452;8.656;2023-04-09T07:54:39;6.20;99.90
1766;DHT22;880;52.452;8.656;2023-04-09T07:57:06;6.20;99.90
1766;DHT22;880;52.452;8.656;2023-04-09T07:59:34;6.20;99.90
1766;DHT22;880;52.452;8.656;2023-04-09T08:02:01;6.30;99.90
1766;DHT22;880;52.452;8.656;2023-04-09T08:04:29;6.30;99.90
1766;DHT22;880;52.452;8.656;2023-04-09T08:06:56;6.40;99.90
1766;DHT22;880;52.452;8.656;2023-04-09T08:09:23;6.40;99.90
1766;DHT22;880;52.452;8.656;2023-04-09T08:11:50;6.40;99.90
1766;DHT22;880;52.452;8.656;2023-04-09T08:14:17;6.40;99.90
1766;DHT22;880;52.452;8.656;2023-04-09T08:16:45;6.40;99.90
1766;DHT22;880;52.452;8.656;2023-04-09T08:19:15;6.40;99.90
1766;DHT22;880;52.452;8.656;2023-04-09T08:21:42;6.50;99.90
1766;DHT22;880;52.452;8.656;2023-04-09T08:24:10;6.50;99.90
1766;DHT22;880;52.452;8.656;2023-04-09T08:26:39;6.40;99.90
1766;DHT22;880;52.452;8.656;2023-04-09T08:29:07;6.50;99.90
1766;DHT22;880;52.452;8.656;2023-04-09T08:31:34;6.60;99.90
1766;DHT22;880;52.452;8.656;2023-04-09T08:34:05;6.70;99.90
1766;DHT22;880;52.452;8.656;2023-04-09T08:36:32;6.70;99.90
1766;DHT22;880;52.452;8.656;2023-04-09T08:39:01;6.70;99.90
1766;DHT22;880;52.452;8.656;2023-04-09T08:41:28;6.80;99.90
1766;DHT22;880;52.452;8.656;2023-04-09T08:43:57;6.80;99.90
1766;DHT22;880;52.452;8.656;2023-04-09T08:46:27;7.00;99.90
1766;DHT22;880;52.452;8.656;2023-04-09T08:48:57;7.00;99.90
1766;DHT22;880;52.452;8.656;2023-04-09T08:51:24;7.00;99.90
1766;DHT22;880;52.452;8.656;2023-04-09T08:53:55;7.10;99.90
1766;DHT22;880;52.452;8.656;2023-04-09T08:56:30;7.20;99.90
1766;DHT22;880;52.452;8.656;2023-04-09T08:58:57;7.10;99.90
1766;DHT22;880;52.452;8.656;2023-04-09T09:04:15;7.30;99.90
1766;DHT22;880;52.452;8.656;2023-04-09T09:06:42;7.40;99.90
1766;DHT22;880;52.452;8.656;2023-04-09T09:09:14;7.40;99.90
1766;DHT22;880;52.452;8.656;2023-04-09T09:11:47;7.40;99.90
1766;DHT22;880;52.452;8.656;2023-04-09T09:14:18;7.40;99.90
1766;DHT22;880;52.452;8.656;2023-04-09T09:21:59;7.70;99.90
1766;DHT22;880;52.452;8.656;2023-04-09T09:24:28;7.90;99.90
1766;DHT22;880;52.452;8.656;2023-04-09T09:26:55;8.00;99.90
1766;DHT22;880;52.452;8.656;2023-04-09T09:29:25;8.20;99.90
1766;DHT22;880;52.452;8.656;2023-04-09T09:31:53;8.30;99.90
1766;DHT22;880;52.452;8.656;2023-04-09T09:34:22;8.50;99.90
1766;DHT22;880;52.452;8.656;2023-04-09T09:36:50;8.60;99.90
1766;DHT22;880;52.452;8.656;2023-04-09T09:39:18;8.70;99.90
1766;DHT22;880;52.452;8.656;2023-04-09T09:41:45;9.00;99.90
1766;DHT22;880;52.452;8.656;2023-04-09T09:44:30;9.40;99.90
1766;DHT22;880;52.452;8.656;2023-04-09T09:46:58;9.90;99.90
1766;DHT22;880;52.452;8.656;2023-04-09T09:49:25;10.10;99.90
1766;DHT22;880;52.452;8.656;2023-04-09T09:51:52;10.20;99.90
1766;DHT22;880;52.452;8.656;2023-04-09T09:54:24;10.30;99.90
1766;DHT22;880;52.452;8.656;2023-04-09T09:56:54;10.50;99.90
1766;DHT22;880;52.452;8.656;2023-04-09T09:59:26;10.70;99.90
1766;DHT22;880;52.452;8.656;2023-04-09T10:01:59;10.90;99.90
1766;DHT22;880;52.452;8.656;2023-04-09T10:04:33;11.20;99.90
1766;DHT22;880;52.452;8.656;2023-04-09T10:07:05;11.50;99.90
1766;DHT22;880;52.452;8.656;2023-04-09T10:09:34;11.70;99.90
1766;DHT22;880;52.452;8.656;2023-04-09T10:12:05;11.80;99.90
1766;DHT22;880;52.452;8.656;2023-04-09T10:14:33;11.90;99.90
1766;DHT22;880;52.452;8.656;2023-04-09T10:17:02;12.10;99.90
1766;DHT22;880;52.452;8.656;2023-04-09T10:19:30;12.30;99.90
1766;DHT22;880;52.452;8.656;2023-04-09T10:22:04;12.60;99.90
1766;DHT22;880;52.452;8.656;2023-04-09T10:24:37;12.90;99.90
1766;DHT22;880;52.452;8.656;2023-04-09T10:27:30;13.10;99.90
1766;DHT22;880;52.452;8.656;2023-04-09T10:29:57;13.20;99.90
1766;DHT22;880;52.452;8.656;2023-04-09T10:32:25;13.40;99.90
1766;DHT22;880;52.452;8.656;2023-04-09T10:34:57;13.60;99.90
1766;DHT22;880;52.452;8.656;2023-04-09T10:37:27;13.70;99.90
1766;DHT22;880;52.452;8.656;2023-04-09T10:39:54;13.70;99.90
1766;DHT22;880;52.452;8.656;2023-04-09T10:42:29;13.80;99.90
1766;DHT22;880;52.452;8.656;2023-04-09T10:45:14;14.00;99.90
1766;DHT22;880;52.452;8.656;2023-04-09T10:47:42;14.10;99.90
1766;DHT22;880;52.452;8.656;2023-04-09T10:50:19;14.20;99.90
1766;DHT22;880;52.452;8.656;2023-04-09T10:52:56;14.10;99.90
1766;DHT22;880;52.452;8.656;2023-04-09T10:58:08;14.10;99.90
1766;DHT22;880;52.452;8.656;2023-04-09T11:00:44;13.90;99.90
1766;DHT22;880;52.452;8.656;2023-04-09T11:03:26;13.90;99.90
1766;DHT22;880;52.452;8.656;2023-04-09T11:06:04;14.00;99.90
1766;DHT22;880;52.452;8.656;2023-04-09T11:08:35;14.10;99.90
1766;DHT22;880;52.452;8.656;2023-04-09T11:11:07;14.20;99.90
1766;DHT22;880;52.452;8.656;2023-04-09T11:13:36;14.40;99.90
1766;DHT22;880;52.452;8.656;2023-04-09T11:16:03;14.60;99.90
1766;DHT22;880;52.452;8.656;2023-04-09T11:18:33;14.60;99.90
1766;DHT22;880;52.452;8.656;2023-04-09T11:21:02;14.90;99.90
1766;DHT22;880;52.452;8.656;2023-04-09T11:23:31;15.20;99.90
1766;DHT22;880;52.452;8.656;2023-04-09T11:25:58;15.40;99.90
1766;DHT22;880;52.452;8.656;2023-04-09T11:28:26;15.60;99.90
1766;DHT22;880;52.452;8.656;2023-04-09T11:30:53;15.70;99.90
1766;DHT22;880;52.452;8.656;2023-04-09T11:33:20;15.80;99.90
1766;DHT22;880;52.452;8.656;2023-04-09T11:35:47;15.90;99.90
1766;DHT22;880;52.452;8.656;2023-04-09T11:38:15;16.00;99.90
1766;DHT22;880;52.452;8.656;2023-04-09T11:40:43;16.00;99.90
1766;DHT22;880;52.452;8.656;2023-04-09T11:43:17;16.20;99.90
1766;DHT22;880;52.452;8.656;2023-04-09T11:45:46;16.30;99.90
1766;DHT22;880;52.452;8.656;2023-04-09T11:48:15;16.20;99.90
1766;DHT22;880;52.452;8.656;2023-04-09T11:50:44;16.30;99.90
1766;DHT22;880;52.452;8.656;2023-04-09T11:53:21;16.40;99.90
1766;DHT22;880;52.452;8.656;2023-04-09T11:55:49;16.30;99.90
1766;DHT22;880;52.452;8.656;2023-04-09T11:58:26;16.50;99.90
1766;DHT22;880;52.452;8.656;2023-04-09T12:00:54;16.50;99.90
1766;DHT22;880;52.452;8.656;2023-04-09T12:03:28;16.40;99.90
1766;DHT22;880;52.452;8.656;2023-04-09T12:05:59;16.30;99.90
1766;DHT22;880;52.452;8.656;2023-04-09T12:08:27;16.10;99.90
1766;DHT22;880;52.452;8.656;2023-04-09T12:10:54;16.20;99.90
1766;DHT22;880;52.452;8.656;2023-04-09T12:13:31;16.30;99.90
1766;DHT22;880;52.452;8.656;2023-04-09T12:15:59;16.40;99.90
1766;DHT22;880;52.452;8.656;2023-04-09T12:18:28;16.40;99.90
1766;DHT22;880;52.452;8.656;2023-04-09T12:20:55;16.30;99.90
1766;DHT22;880;52.452;8.656;2023-04-09T12:23:22;16.20;99.90
1766;DHT22;880;52.452;8.656;2023-04-09T12:25:49;16.20;99.90
1766;DHT22;880;52.452;8.656;2023-04-09T12:28:16;16.10;99.90
1766;DHT22;880;52.452;8.656;2023-04-09T12:30:44;16.10;99.90
1766;DHT22;880;52.452;8.656;2023-04-09T12:33:11;16.00;99.90
1766;DHT22;880;52.452;8.656;2023-04-09T12:35:38;15.80;99.90
1766;DHT22;880;52.452;8.656;2023-04-09T12:38:06;16.00;99.90
1766;DHT22;880;52.452;8.656;2023-04-09T12:40:34;16.20;99.90
1766;DHT22;880;52.452;8.656;2023-04-09T12:43:02;16.40;99.90
1766;DHT22;880;52.452;8.656;2023-04-09T12:45:30;16.50;99.90
1766;DHT22;880;52.452;8.656;2023-04-09T12:47:57;16.70;99.90
1766;DHT22;880;52.452;8.656;2023-04-09T12:50:24;16.80;99.90
1766;DHT22;880;52.452;8.656;2023-04-09T12:52:51;16.70;99.10
1766;DHT22;880;52.452;8.656;2023-04-09T12:55:18;16.40;99.80
1766;DHT22;880;52.452;8.656;2023-04-09T12:57:48;16.20;99.90
1766;DHT22;880;52.452;8.656;2023-04-09T13:00:16;16.10;99.50
1766;DHT22;880;52.452;8.656;2023-04-09T13:02:43;15.90;99.90
1766;DHT22;880;52.452;8.656;2023-04-09T13:05:10;15.80;99.90
1766;DHT22;880;52.452;8.656;2023-04-09T13:07:37;15.80;99.90
1766;DHT22;880;52.452;8.656;2023-04-09T13:10:08;15.80;99.90
1766;DHT22;880;52.452;8.656;2023-04-09T13:12:35;15.80;99.90
1766;DHT22;880;52.452;8.656;2023-04-09T13:15:02;15.70;99.20
1766;DHT22;880;52.452;8.656;2023-04-09T13:17:30;15.60;99.90
1766;DHT22;880;52.452;8.656;2023-04-09T13:19:57;15.50;99.90
1766;DHT22;880;52.452;8.656;2023-04-09T13:22:24;15.50;99.90
1766;DHT22;880;52.452;8.656;2023-04-09T13:24:51;15.50;99.90
1766;DHT22;880;52.452;8.656;2023-04-09T13:27:18;15.60;99.40
1766;DHT22;880;52.452;8.656;2023-04-09T13:29:46;15.70;99.60
1766;DHT22;880;52.452;8.656;2023-04-09T13:32:13;16.00;99.30
1766;DHT22;880;52.452;8.656;2023-04-09T13:34:40;16.20;99.80
1766;DHT22;880;52.452;8.656;2023-04-09T13:37:07;16.40;99.90
1766;DHT22;880;52.452;8.656;2023-04-09T13:39:34;16.50;99.90
1766;DHT22;880;52.452;8.656;2023-04-09T13:42:01;16.60;99.90
1766;DHT22;880;52.452;8.656;2023-04-09T13:44:38;16.60;99.90
1766;DHT22;880;52.452;8.656;2023-04-09T13:47:08;16.30;99.90
1766;DHT22;880;52.452;8.656;2023-04-09T13:49:37;16.20;99.90
1766;DHT22;880;52.452;8.656;2023-04-09T13:52:05;16.00;99.90
1766;DHT22;880;52.452;8.656;2023-04-09T13:54:32;15.80;99.90
1766;DHT22;880;52.452;8.656;2023-04-09T13:57:00;15.70;99.90
1766;DHT22;880;52.452;8.656;2023-04-09T13:59:27;15.60;99.90
1766;DHT22;880;52.452;8.656;2023-04-09T14:01:54;15.80;99.90
1766;DHT22;880;52.452;8.656;2023-04-09T14:04:22;16.00;99.90
1766;DHT22;880;52.452;8.656;2023-04-09T14:06:49;16.20;99.90
1766;DHT22;880;52.452;8.656;2023-04-09T14:09:16;16.20;99.70
1766;DHT22;880;52.452;8.656;2023-04-09T14:11:43;16.10;99.90
1766;DHT22;880;52.452;8.656;2023-04-09T14:14:10;16.30;99.90
1766;DHT22;880;52.452;8.656;2023-04-09T14:16:37;16.50;99.90
1766;DHT22;880;52.452;8.656;2023-04-09T14:19:04;16.40;99.10
1766;DHT22;880;52.452;8.656;2023-04-09T14:21:32;16.30;99.40
1766;DHT22;880;52.452;8.656;2023-04-09T14:24:00;16.10;98.70
1766;DHT22;880;52.452;8.656;2023-04-09T14:26:27;15.90;98.60
1766;DHT22;880;52.452;8.656;2023-04-09T14:28:54;15.70;98.90
1766;DHT22;880;52.452;8.656;2023-04-09T14:31:22;15.50;99.60
1766;DHT22;880;52.452;8.656;2023-04-09T14:33:49;15.50;99.90
1766;DHT22;880;52.452;8.656;2023-04-09T14:36:16;15.40;99.90
1766;DHT22;880;52.452;8.656;2023-04-09T14:38:43;15.40;99.90
1766;DHT22;880;52.452;8.656;2023-04-09T14:41:11;15.40;99.10
1766;DHT22;880;52.452;8.656;2023-04-09T14:43:38;15.40;99.30
1766;DHT22;880;52.452;8.656;2023-04-09T14:46:05;15.40;99.50
1766;DHT22;880;52.452;8.656;2023-04-09T14:48:32;15.50;99.80
1766;DHT22;880;52.452;8.656;2023-04-09T14:50:59;15.50;99.90
1766;DHT22;880;52.452;8.656;2023-04-09T14:53:26;15.50;99.90
1766;DHT22;880;52.452;8.656;2023-04-09T14:55:53;15.40;99.90
1766;DHT22;880;52.452;8.656;2023-04-09T14:58:20;15.20;99.90
1766;DHT22;880;52.452;8.656;2023-04-09T15:00:47;14.90;99.90
1766;DHT22;880;52.452;8.656;2023-04-09T15:03:15;14.50;99.90
1766;DHT22;880;52.452;8.656;2023-04-09T15:05:43;14.40;99.90
1766;DHT22;880;52.452;8.656;2023-04-09T15:08:11;14.40;99.90
1766;DHT22;880;52.452;8.656;2023-04-09T15:10:38;14.40;99.90
1766;DHT22;880;52.452;8.656;2023-04-09T15:13:05;14.40;99.90
1766;DHT22;880;52.452;8.656;2023-04-09T15:15:32;14.20;99.90
1766;DHT22;880;52.452;8.656;2023-04-09T15:17:59;14.20;99.90
1766;DHT22;880;52.452;8.656;2023-04-09T15:20:38;14.30;99.90
1766;DHT22;880;52.452;8.656;2023-04-09T15:23:06;14.30;99.90
1766;DHT22;880;52.452;8.656;2023-04-09T15:25:32;14.40;99.90
1766;DHT22;880;52.452;8.656;2023-04-09T15:28:00;14.60;99.90
1766;DHT22;880;52.452;8.656;2023-04-09T15:30:28;14.80;99.90
1766;DHT22;880;52.452;8.656;2023-04-09T15:32:55;15.00;99.90
1766;DHT22;880;52.452;8.656;2023-04-09T15:35:23;15.00;99.90
1766;DHT22;880;52.452;8.656;2023-04-09T15:37:52;15.00;99.90
1766;DHT22;880;52.452;8.656;2023-04-09T15:40:19;15.00;99.90
1766;DHT22;880;52.452;8.656;2023-04-09T15:42:49;15.00;99.90
1766;DHT22;880;52.452;8.656;2023-04-09T15:45:16;15.00;99.90
1766;DHT22;880;52.452;8.656;2023-04-09T15:47:43;15.10;99.90
1766;DHT22;880;52.452;8.656;2023-04-09T15:50:12;15.30;99.90
1766;DHT22;880;52.452;8.656;2023-04-09T15:52:39;15.30;99.90
1766;DHT22;880;52.452;8.656;2023-04-09T15:55:07;15.30;99.90
1766;DHT22;880;52.452;8.656;2023-04-09T15:57:34;15.40;99.90
1766;DHT22;880;52.452;8.656;2023-04-09T16:00:01;15.40;99.90
1766;DHT22;880;52.452;8.656;2023-04-09T16:02:30;15.50;99.90
1766;DHT22;880;52.452;8.656;2023-04-09T16:04:57;15.40;99.90
1766;DHT22;880;52.452;8.656;2023-04-09T16:07:24;15.40;99.90
1766;DHT22;880;52.452;8.656;2023-04-09T16:09:51;15.30;99.90
1766;DHT22;880;52.452;8.656;2023-04-09T16:12:18;15.00;99.90
1766;DHT22;880;52.452;8.656;2023-04-09T16:14:45;14.80;99.90
1766;DHT22;880;52.452;8.656;2023-04-09T16:17:12;14.70;99.90
1766;DHT22;880;52.452;8.656;2023-04-09T16:19:39;14.60;99.90
1766;DHT22;880;52.452;8.656;2023-04-09T16:22:07;14.50;99.90
1766;DHT22;880;52.452;8.656;2023-04-09T16:24:35;14.50;99.90
1766;DHT22;880;52.452;8.656;2023-04-09T16:27:02;14.50;99.90
1766;DHT22;880;52.452;8.656;2023-04-09T16:29:29;14.50;99.90
1766;DHT22;880;52.452;8.656;2023-04-09T16:31:56;14.40;99.90
1766;DHT22;880;52.452;8.656;2023-04-09T16:34:23;14.40;99.90
1766;DHT22;880;52.452;8.656;2023-04-09T16:36:50;14.50;99.90
1766;DHT22;880;52.452;8.656;2023-04-09T16:39:18;14.60;99.90
1766;DHT22;880;52.452;8.656;2023-04-09T16:41:45;14.70;99.90
1766;DHT22;880;52.452;8.656;2023-04-09T16:44:12;14.90;99.90
1766;DHT22;880;52.452;8.656;2023-04-09T16:46:45;15.00;99.90
1766;DHT22;880;52.452;8.656;2023-04-09T16:49:12;15.10;99.90
1766;DHT22;880;52.452;8.656;2023-04-09T16:51:39;15.10;99.90
1766;DHT22;880;52.452;8.656;2023-04-09T16:54:06;15.10;99.90
1766;DHT22;880;52.452;8.656;2023-04-09T16:56:33;15.10;99.90
1766;DHT22;880;52.452;8.656;2023-04-09T16:59:00;15.10;99.90
1766;DHT22;880;52.452;8.656;2023-04-09T17:01:27;15.10;99.90